sensor_id;sensor_type;location;lat;lon;timestamp;pressure;altitude;pressure_sealevel;temperature;humidity
50852;BME280;43953;45.508;-122.806;2022-07-25T00:00:20;100596.66;;;39.00;23.52
50852;BME280;43953;45.508;-122.806;2022-07-25T00:00:52;100599.84;;;38.84;23.41
50852;BME280;43953;45.508;-122.806;2022-07-25T00:01:24;100599.06;;;38.69;23.84
50852;BME280;43953;45.508;-122.806;2022-07-25T00:01:55;100597.09;;;38.55;23.92
50852;BME280;43953;45.508;-122.806;2022-07-25T00:02:27;100601.94;;;38.40;24.14
50852;BME280;43953;45.508;-122.806;2022-07-25T00:03:00;100595.06;;;38.27;24.33
50852;BME280;43953;45.508;-122.806;2022-07-25T00:03:32;100599.88;;;38.16;24.60
50852;BME280;43953;45.508;-122.806;2022-07-25T00:04:03;100591.84;;;38.04;24.69
50852;BME280;43953;45.508;-122.806;2022-07-25T00:04:35;100601.06;;;37.93;24.78
50852;BME280;43953;45.508;-122.806;2022-07-25T00:05:07;100603.81;;;37.86;24.63
50852;BME280;43953;45.508;-122.806;2022-07-25T00:05:39;100596.19;;;37.79;24.81
50852;BME280;43953;45.508;-122.806;2022-07-25T00:06:11;100599.00;;;37.72;24.79
50852;BME280;43953;45.508;-122.806;2022-07-25T00:06:42;100602.97;;;37.68;25.03
50852;BME280;43953;45.508;-122.806;2022-07-25T00:07:14;100598.94;;;37.62;25.13
50852;BME280;43953;45.508;-122.806;2022-07-25T00:07:46;100598.53;;;37.56;25.43
50852;BME280;43953;45.508;-122.806;2022-07-25T00:08:17;100598.09;;;37.50;24.99
50852;BME280;43953;45.508;-122.806;2022-07-25T00:08:49;100599.28;;;37.46;25.67
50852;BME280;43953;45.508;-122.806;2022-07-25T00:09:21;100596.03;;;37.40;25.68
50852;BME280;43953;45.508;-122.806;2022-07-25T00:09:53;100595.63;;;37.34;25.91
50852;BME280;43953;45.508;-122.806;2022-07-25T00:10:25;100591.59;;;37.28;25.60
50852;BME280;43953;45.508;-122.806;2022-07-25T00:10:57;100591.16;;;37.23;25.58
50852;BME280;43953;45.508;-122.806;2022-07-25T00:11:28;100591.53;;;37.18;25.73
50852;BME280;43953;45.508;-122.806;2022-07-25T00:12:00;100593.09;;;37.11;25.92
50852;BME280;43953;45.508;-122.806;2022-07-25T00:12:32;100586.25;;;37.05;25.84
50852;BME280;43953;45.508;-122.806;2022-07-25T00:13:04;100593.88;;;37.01;25.86
50852;BME280;43953;45.508;-122.806;2022-07-25T00:13:35;100596.19;;;36.96;26.12
50852;BME280;43953;45.508;-122.806;2022-07-25T00:14:07;100588.94;;;36.91;25.94
50852;BME280;43953;45.508;-122.806;2022-07-25T00:14:39;100595.34;;;36.88;26.11
50852;BME280;43953;45.508;-122.806;2022-07-25T00:15:11;100583.72;;;36.86;26.23
50852;BME280;43953;45.508;-122.806;2022-07-25T00:15:42;100588.56;;;36.93;26.11
50852;BME280;43953;45.508;-122.806;2022-07-25T00:16:14;100592.28;;;37.07;25.82
50852;BME280;43953;45.508;-122.806;2022-07-25T00:16:46;100591.59;;;37.28;25.80
50852;BME280;43953;45.508;-122.806;2022-07-25T00:17:17;100588.84;;;37.46;25.54
50852;BME280;43953;45.508;-122.806;2022-07-25T00:17:49;100588.09;;;37.56;25.43
50852;BME280;43953;45.508;-122.806;2022-07-25T00:18:21;100583.69;;;37.55;25.21
50852;BME280;43953;45.508;-122.806;2022-07-25T00:18:52;100582.06;;;37.47;25.08
50852;BME280;43953;45.508;-122.806;2022-07-25T00:19:24;100586.00;;;37.35;25.24
50852;BME280;43953;45.508;-122.806;2022-07-25T00:19:56;100580.34;;;37.25;25.70
50852;BME280;43953;45.508;-122.806;2022-07-25T00:20:28;100582.69;;;37.12;25.38
50852;BME280;43953;45.508;-122.806;2022-07-25T00:20:59;100582.63;;;37.01;25.85
50852;BME280;43953;45.508;-122.806;2022-07-25T00:21:31;100584.53;;;36.90;25.98
50852;BME280;43953;45.508;-122.806;2022-07-25T00:22:03;100583.28;;;36.80;26.19
50852;BME280;43953;45.508;-122.806;2022-07-25T00:22:35;100584.44;;;36.72;26.49
50852;BME280;43953;45.508;-122.806;2022-07-25T00:23:06;100580.75;;;36.64;26.45
50852;BME280;43953;45.508;-122.806;2022-07-25T00:23:38;100584.41;;;36.65;26.35
50852;BME280;43953;45.508;-122.806;2022-07-25T00:24:10;100579.97;;;36.67;26.38
50852;BME280;43953;45.508;-122.806;2022-07-25T00:24:42;100579.19;;;36.71;26.30
50852;BME280;43953;45.508;-122.806;2022-07-25T00:25:13;100582.84;;;36.75;26.26
50852;BME280;43953;45.508;-122.806;2022-07-25T00:25:45;100579.25;;;36.74;26.20
50852;BME280;43953;45.508;-122.806;2022-07-25T00:26:17;100574.41;;;36.71;26.22
50852;BME280;43953;45.508;-122.806;2022-07-25T00:26:49;100574.38;;;36.67;26.28
50852;BME280;43953;45.508;-122.806;2022-07-25T00:27:20;100579.94;;;36.60;26.45
50852;BME280;43953;45.508;-122.806;2022-07-25T00:27:52;100585.53;;;36.53;26.27
50852;BME280;43953;45.508;-122.806;2022-07-25T00:28:24;100572.59;;;36.45;26.37
50852;BME280;43953;45.508;-122.806;2022-07-25T00:28:55;100574.94;;;36.36;26.59
50852;BME280;43953;45.508;-122.806;2022-07-25T00:29:27;100575.28;;;36.27;26.75
50852;BME280;43953;45.508;-122.806;2022-07-25T00:29:59;100565.16;;;36.15;26.76
50852;BME280;43953;45.508;-122.806;2022-07-25T00:30:31;100572.72;;;36.11;27.02
50852;BME280;43953;45.508;-122.806;2022-07-25T00:31:02;100571.03;;;36.03;27.11
50852;BME280;43953;45.508;-122.806;2022-07-25T00:31:34;100570.56;;;35.97;27.15
50852;BME280;43953;45.508;-122.806;2022-07-25T00:32:06;100570.13;;;35.92;27.34
50852;BME280;43953;45.508;-122.806;2022-07-25T00:32:38;100572.81;;;35.85;27.47
50852;BME280;43953;45.508;-122.806;2022-07-25T00:33:09;100566.75;;;35.79;27.78
50852;BME280;43953;45.508;-122.806;2022-07-25T00:33:41;100572.34;;;35.75;27.40
50852;BME280;43953;45.508;-122.806;2022-07-25T00:34:13;100563.91;;;35.72;27.95
50852;BME280;43953;45.508;-122.806;2022-07-25T00:34:45;100566.66;;;35.68;27.58
50852;BME280;43953;45.508;-122.806;2022-07-25T00:35:16;100568.22;;;35.62;27.84
50852;BME280;43953;45.508;-122.806;2022-07-25T00:35:48;100562.19;;;35.60;27.76
50852;BME280;43953;45.508;-122.806;2022-07-25T00:36:20;100566.16;;;35.56;27.98
50852;BME280;43953;45.508;-122.806;2022-07-25T00:36:52;100567.25;;;35.51;27.85
50852;BME280;43953;45.508;-122.806;2022-07-25T00:37:23;100571.63;;;35.48;28.16
50852;BME280;43953;45.508;-122.806;2022-07-25T00:37:55;100566.78;;;35.45;28.22
50852;BME280;43953;45.508;-122.806;2022-07-25T00:38:27;100559.16;;;35.42;27.96
50852;BME280;43953;45.508;-122.806;2022-07-25T00:38:59;100566.72;;;35.38;28.49
50852;BME280;43953;45.508;-122.806;2022-07-25T00:39:30;100553.84;;;35.33;28.11
50852;BME280;43953;45.508;-122.806;2022-07-25T00:40:03;100560.22;;;35.30;28.26
50852;BME280;43953;45.508;-122.806;2022-07-25T00:40:35;100560.97;;;35.27;28.30
50852;BME280;43953;45.508;-122.806;2022-07-25T00:41:07;100553.69;;;35.23;28.27
50852;BME280;43953;45.508;-122.806;2022-07-25T00:41:39;100556.91;;;35.21;28.24
50852;BME280;43953;45.508;-122.806;2022-07-25T00:42:10;100558.84;;;35.17;28.30
50852;BME280;43953;45.508;-122.806;2022-07-25T00:42:42;100556.81;;;35.14;28.24
50852;BME280;43953;45.508;-122.806;2022-07-25T00:43:14;100554.34;;;35.09;28.57
50852;BME280;43953;45.508;-122.806;2022-07-25T00:43:46;100557.50;;;35.07;28.55
50852;BME280;43953;45.508;-122.806;2022-07-25T00:44:25;100557.44;;;35.04;28.35
50852;BME280;43953;45.508;-122.806;2022-07-25T00:44:57;100554.97;;;34.99;28.50
50852;BME280;43953;45.508;-122.806;2022-07-25T00:45:30;100547.34;;;34.96;28.52
50852;BME280;43953;45.508;-122.806;2022-07-25T00:46:02;100554.13;;;34.95;28.62
50852;BME280;43953;45.508;-122.806;2022-07-25T00:46:37;100546.50;;;34.92;28.68
50852;BME280;43953;45.508;-122.806;2022-07-25T00:47:09;100542.47;;;34.89;28.58
50852;BME280;43953;45.508;-122.806;2022-07-25T00:47:41;100552.41;;;34.86;28.87
50852;BME280;43953;45.508;-122.806;2022-07-25T00:48:12;100555.59;;;34.85;28.72
50852;BME280;43953;45.508;-122.806;2022-07-25T00:48:44;100551.94;;;34.81;28.80
50852;BME280;43953;45.508;-122.806;2022-07-25T00:49:16;100555.47;;;34.78;28.77
50852;BME280;43953;45.508;-122.806;2022-07-25T00:49:48;100552.28;;;34.76;28.74
50852;BME280;43953;45.508;-122.806;2022-07-25T00:50:19;100553.84;;;34.73;28.77
50852;BME280;43953;45.508;-122.806;2022-07-25T00:50:51;100546.56;;;34.69;28.46
50852;BME280;43953;45.508;-122.806;2022-07-25T00:51:24;100548.91;;;34.67;28.85
50852;BME280;43953;45.508;-122.806;2022-07-25T00:51:56;100551.66;;;34.63;28.48
50852;BME280;43953;45.508;-122.806;2022-07-25T00:52:28;100539.19;;;34.57;28.77
50852;BME280;43953;45.508;-122.806;2022-07-25T00:53:00;100547.59;;;34.57;28.44
50852;BME280;43953;45.508;-122.806;2022-07-25T00:53:32;100544.34;;;34.55;28.47
50852;BME280;43953;45.508;-122.806;2022-07-25T00:54:04;100552.66;;;34.51;28.57
50852;BME280;43953;45.508;-122.806;2022-07-25T00:54:36;100549.44;;;34.49;28.67
50852;BME280;43953;45.508;-122.806;2022-07-25T00:55:08;100549.38;;;34.46;28.71
50852;BME280;43953;45.508;-122.806;2022-07-25T00:55:39;100547.78;;;34.45;29.04
50852;BME280;43953;45.508;-122.806;2022-07-25T00:56:11;100539.34;;;34.41;28.89
50852;BME280;43953;45.508;-122.806;2022-07-25T00:56:43;100543.69;;;34.38;29.12
50852;BME280;43953;45.508;-122.806;2022-07-25T00:57:15;100544.44;;;34.35;29.00
50852;BME280;43953;45.508;-122.806;2022-07-25T00:57:47;100543.59;;;34.31;29.25
50852;BME280;43953;45.508;-122.806;2022-07-25T00:58:19;100545.94;;;34.29;29.31
50852;BME280;43953;45.508;-122.806;2022-07-25T00:58:50;100546.28;;;34.28;29.10
50852;BME280;43953;45.508;-122.806;2022-07-25T00:59:22;100549.03;;;34.24;28.73
50852;BME280;43953;45.508;-122.806;2022-07-25T00:59:54;100548.59;;;34.22;29.15
50852;BME280;43953;45.508;-122.806;2022-07-25T01:00:26;100540.97;;;34.19;28.82
50852;BME280;43953;45.508;-122.806;2022-07-25T01:00:58;100543.34;;;34.17;29.27
50852;BME280;43953;45.508;-122.806;2022-07-25T01:01:30;100550.47;;;34.14;29.26
50852;BME280;43953;45.508;-122.806;2022-07-25T01:02:01;100544.84;;;34.11;28.74
50852;BME280;43953;45.508;-122.806;2022-07-25T01:02:33;100546.00;;;34.10;29.00
50852;BME280;43953;45.508;-122.806;2022-07-25T01:03:05;100553.13;;;34.07;29.17
50852;BME280;43953;45.508;-122.806;2022-07-25T01:03:37;100539.91;;;34.04;29.07
50852;BME280;43953;45.508;-122.806;2022-07-25T01:04:08;100549.81;;;34.02;29.28
50852;BME280;43953;45.508;-122.806;2022-07-25T01:04:40;100553.78;;;34.01;29.41
50852;BME280;43953;45.508;-122.806;2022-07-25T01:05:12;100543.38;;;33.97;29.42
50852;BME280;43953;45.508;-122.806;2022-07-25T01:05:43;100548.50;;;33.95;29.00
50852;BME280;43953;45.508;-122.806;2022-07-25T01:06:15;100548.44;;;33.92;29.16
50852;BME280;43953;45.508;-122.806;2022-07-25T01:06:47;100548.03;;;33.90;29.04
50852;BME280;43953;45.508;-122.806;2022-07-25T01:07:19;100547.94;;;33.86;28.94
50852;BME280;43953;45.508;-122.806;2022-07-25T01:07:51;100543.56;;;33.85;29.49
50852;BME280;43953;45.508;-122.806;2022-07-25T01:08:23;100548.69;;;33.83;29.65
50852;BME280;43953;45.508;-122.806;2022-07-25T01:08:55;100547.44;;;33.81;29.66
50852;BME280;43953;45.508;-122.806;2022-07-25T01:09:27;100547.84;;;33.79;29.83
50852;BME280;43953;45.508;-122.806;2022-07-25T01:10:00;100542.53;;;33.74;29.62
50852;BME280;43953;45.508;-122.806;2022-07-25T01:10:32;100546.94;;;33.75;29.41
50852;BME280;43953;45.508;-122.806;2022-07-25T01:11:03;100541.28;;;33.71;29.79
50852;BME280;43953;45.508;-122.806;2022-07-25T01:11:35;100542.03;;;33.68;30.00
50852;BME280;43953;45.508;-122.806;2022-07-25T01:12:07;100542.44;;;33.67;29.85
50852;BME280;43953;45.508;-122.806;2022-07-25T01:12:58;100535.16;;;33.62;29.65
50852;BME280;43953;45.508;-122.806;2022-07-25T01:13:32;100544.72;;;33.61;29.54
50852;BME280;43953;45.508;-122.806;2022-07-25T01:14:04;100540.66;;;33.59;29.93
50852;BME280;43953;45.508;-122.806;2022-07-25T01:14:37;100532.66;;;33.57;29.50
50852;BME280;43953;45.508;-122.806;2022-07-25T01:15:09;100533.03;;;33.56;29.86
50852;BME280;43953;45.508;-122.806;2022-07-25T01:15:41;100543.75;;;33.53;30.25
50852;BME280;43953;45.508;-122.806;2022-07-25T01:16:13;100534.97;;;33.51;29.76
50852;BME280;43953;45.508;-122.806;2022-07-25T01:16:45;100531.69;;;33.49;30.10
50852;BME280;43953;45.508;-122.806;2022-07-25T01:17:17;100534.03;;;33.47;29.94
50852;BME280;43953;45.508;-122.806;2022-07-25T01:17:49;100539.16;;;33.45;29.83
50852;BME280;43953;45.508;-122.806;2022-07-25T01:18:21;100533.97;;;33.44;29.99
50852;BME280;43953;45.508;-122.806;2022-07-25T01:18:53;100541.09;;;33.41;29.86
50852;BME280;43953;45.508;-122.806;2022-07-25T01:19:24;100536.69;;;33.40;29.86
50852;BME280;43953;45.508;-122.806;2022-07-25T01:19:56;100527.44;;;33.36;29.78
50852;BME280;43953;45.508;-122.806;2022-07-25T01:20:29;100532.22;;;33.36;29.70
50852;BME280;43953;45.508;-122.806;2022-07-25T01:21:01;100528.97;;;33.34;29.88
50852;BME280;43953;45.508;-122.806;2022-07-25T01:21:37;100535.28;;;33.30;30.40
50852;BME280;43953;45.508;-122.806;2022-07-25T01:22:09;100521.72;;;33.29;30.47
50852;BME280;43953;45.508;-122.806;2022-07-25T01:22:41;100529.66;;;33.27;30.39
50852;BME280;43953;45.508;-122.806;2022-07-25T01:23:12;100530.03;;;33.25;30.33
50852;BME280;43953;45.508;-122.806;2022-07-25T01:23:44;100527.59;;;33.24;29.97
50852;BME280;43953;45.508;-122.806;2022-07-25T01:24:16;100527.97;;;33.22;30.02
50852;BME280;43953;45.508;-122.806;2022-07-25T01:24:47;100523.94;;;33.20;30.10
50852;BME280;43953;45.508;-122.806;2022-07-25T01:25:20;100527.88;;;33.19;30.33
50852;BME280;43953;45.508;-122.806;2022-07-25T01:25:52;100514.66;;;33.16;30.43
50852;BME280;43953;45.508;-122.806;2022-07-25T01:26:24;100515.03;;;33.14;30.06
50852;BME280;43953;45.508;-122.806;2022-07-25T01:26:56;100527.75;;;33.12;30.43
50852;BME280;43953;45.508;-122.806;2022-07-25T01:27:27;100521.34;;;33.11;30.06
50852;BME280;43953;45.508;-122.806;2022-07-25T01:27:59;100524.50;;;33.10;30.16
50852;BME280;43953;45.508;-122.806;2022-07-25T01:28:31;100530.06;;;33.10;30.63
50852;BME280;43953;45.508;-122.806;2022-07-25T01:29:03;100529.66;;;33.07;30.62
50852;BME280;43953;45.508;-122.806;2022-07-25T01:29:35;100534.78;;;33.05;30.24
50852;BME280;43953;45.508;-122.806;2022-07-25T01:30:09;100522.03;;;33.04;30.75
50852;BME280;43953;45.508;-122.806;2022-07-25T01:30:41;100522.38;;;33.03;30.32
50852;BME280;43953;45.508;-122.806;2022-07-25T01:31:13;100523.09;;;33.00;30.79
50852;BME280;43953;45.508;-122.806;2022-07-25T01:31:45;100522.63;;;32.98;30.33
50852;BME280;43953;45.508;-122.806;2022-07-25T01:32:17;100518.63;;;32.95;30.89
50852;BME280;43953;45.508;-122.806;2022-07-25T01:32:48;100519.41;;;32.96;30.51
50852;BME280;43953;45.508;-122.806;2022-07-25T01:33:21;100516.97;;;32.94;30.79
50852;BME280;43953;45.508;-122.806;2022-07-25T01:33:52;100526.53;;;32.93;30.72
50852;BME280;43953;45.508;-122.806;2022-07-25T01:34:24;100530.47;;;32.92;30.85
50852;BME280;43953;45.508;-122.806;2022-07-25T01:34:56;100521.69;;;32.90;30.83
50852;BME280;43953;45.508;-122.806;2022-07-25T01:35:27;100525.63;;;32.89;30.54
50852;BME280;43953;45.508;-122.806;2022-07-25T01:35:59;100524.81;;;32.89;30.76
50852;BME280;43953;45.508;-122.806;2022-07-25T01:36:31;100525.56;;;32.85;30.51
50852;BME280;43953;45.508;-122.806;2022-07-25T01:37:02;100524.28;;;32.83;30.69
50852;BME280;43953;45.508;-122.806;2022-07-25T01:37:35;100527.91;;;32.83;31.00
50852;BME280;43953;45.508;-122.806;2022-07-25T01:38:06;100521.50;;;32.83;30.62
50852;BME280;43953;45.508;-122.806;2022-07-25T01:38:38;100513.53;;;32.81;30.56
50852;BME280;43953;45.508;-122.806;2022-07-25T01:39:10;100525.47;;;32.82;30.94
50852;BME280;43953;45.508;-122.806;2022-07-25T01:39:41;100523.06;;;32.80;30.54
50852;BME280;43953;45.508;-122.806;2022-07-25T01:40:13;100517.84;;;32.79;30.54
50852;BME280;43953;45.508;-122.806;2022-07-25T01:40:45;100516.25;;;32.78;30.87
50852;BME280;43953;45.508;-122.806;2022-07-25T01:41:17;100522.16;;;32.76;30.86
50852;BME280;43953;45.508;-122.806;2022-07-25T01:41:49;100520.56;;;32.75;30.50
50852;BME280;43953;45.508;-122.806;2022-07-25T01:42:20;100516.13;;;32.74;30.67
50852;BME280;43953;45.508;-122.806;2022-07-25T01:42:52;100524.88;;;32.73;30.81
50852;BME280;43953;45.508;-122.806;2022-07-25T01:43:24;100519.66;;;32.71;30.61
50852;BME280;43953;45.508;-122.806;2022-07-25T01:43:55;100515.66;;;32.69;30.84
50852;BME280;43953;45.508;-122.806;2022-07-25T01:44:27;100517.25;;;32.70;30.87
50852;BME280;43953;45.508;-122.806;2022-07-25T01:44:59;100514.81;;;32.68;30.88
50852;BME280;43953;45.508;-122.806;2022-07-25T01:45:31;100523.56;;;32.67;30.91
50852;BME280;43953;45.508;-122.806;2022-07-25T01:46:03;100511.59;;;32.66;30.65
50852;BME280;43953;45.508;-122.806;2022-07-25T01:46:35;100520.31;;;32.65;31.08
50852;BME280;43953;45.508;-122.806;2022-07-25T01:47:06;100517.06;;;32.62;30.65
50852;BME280;43953;45.508;-122.806;2022-07-25T01:47:39;100511.50;;;32.62;30.90
50852;BME280;43953;45.508;-122.806;2022-07-25T01:48:11;100521.03;;;32.61;30.72
50852;BME280;43953;45.508;-122.806;2022-07-25T01:48:42;100512.69;;;32.61;30.84
50852;BME280;43953;45.508;-122.806;2022-07-25T01:49:14;100523.38;;;32.59;30.75
50852;BME280;43953;45.508;-122.806;2022-07-25T01:49:46;100517.00;;;32.59;30.62
50852;BME280;43953;45.508;-122.806;2022-07-25T01:50:18;100518.19;;;32.58;31.10
50852;BME280;43953;45.508;-122.806;2022-07-25T01:50:49;100517.38;;;32.57;30.69
50852;BME280;43953;45.508;-122.806;2022-07-25T01:51:21;100511.00;;;32.57;30.94
50852;BME280;43953;45.508;-122.806;2022-07-25T01:51:53;100512.94;;;32.56;30.69
50852;BME280;43953;45.508;-122.806;2022-07-25T01:52:24;100517.31;;;32.54;30.89
50852;BME280;43953;45.508;-122.806;2022-07-25T01:52:56;100512.53;;;32.54;30.73
50852;BME280;43953;45.508;-122.806;2022-07-25T01:53:28;100512.88;;;32.53;31.06
50852;BME280;43953;45.508;-122.806;2022-07-25T01:53:59;100517.66;;;32.52;30.86
50852;BME280;43953;45.508;-122.806;2022-07-25T01:54:31;100508.84;;;32.50;31.06
50852;BME280;43953;45.508;-122.806;2022-07-25T01:55:03;100510.81;;;32.50;30.84
50852;BME280;43953;45.508;-122.806;2022-07-25T01:55:35;100506.41;;;32.49;30.64
50852;BME280;43953;45.508;-122.806;2022-07-25T01:56:07;100508.75;;;32.47;30.58
50852;BME280;43953;45.508;-122.806;2022-07-25T01:56:43;100513.53;;;32.46;30.96
50852;BME280;43953;45.508;-122.806;2022-07-25T01:57:15;100513.88;;;32.45;30.85
50852;BME280;43953;45.508;-122.806;2022-07-25T01:57:47;100514.72;;;32.45;31.02
50852;BME280;43953;45.508;-122.806;2022-07-25T01:58:18;100516.66;;;32.45;30.52
50852;BME280;43953;45.508;-122.806;2022-07-25T01:58:50;100508.31;;;32.45;30.58
50852;BME280;43953;45.508;-122.806;2022-07-25T01:59:22;100508.66;;;32.43;30.39
50852;BME280;43953;45.508;-122.806;2022-07-25T01:59:53;100510.63;;;32.43;30.75
50852;BME280;43953;45.508;-122.806;2022-07-25T02:00:25;100505.41;;;32.41;30.55
50852;BME280;43953;45.508;-122.806;2022-07-25T02:00:57;100509.00;;;32.41;30.55
50852;BME280;43953;45.508;-122.806;2022-07-25T02:01:28;100513.75;;;32.41;30.64
50852;BME280;43953;45.508;-122.806;2022-07-25T02:02:00;100510.19;;;32.40;30.84
50852;BME280;43953;45.508;-122.806;2022-07-25T02:02:32;100506.59;;;32.40;30.52
50852;BME280;43953;45.508;-122.806;2022-07-25T02:03:04;100507.78;;;32.39;30.84
50852;BME280;43953;45.508;-122.806;2022-07-25T02:03:53;100509.28;;;32.36;30.88
50852;BME280;43953;45.508;-122.806;2022-07-25T02:04:25;100516.47;;;32.37;30.71
50852;BME280;43953;45.508;-122.806;2022-07-25T02:04:57;100509.28;;;32.36;30.60
50852;BME280;43953;45.508;-122.806;2022-07-25T02:05:28;100507.31;;;32.37;30.85
50852;BME280;43953;45.508;-122.806;2022-07-25T02:06:06;100506.06;;;32.34;30.90
50852;BME280;43953;45.508;-122.806;2022-07-25T02:06:38;100511.63;;;32.34;30.74
50852;BME280;43953;45.508;-122.806;2022-07-25T02:07:11;100505.25;;;32.34;30.83
50852;BME280;43953;45.508;-122.806;2022-07-25T02:07:43;100497.16;;;32.29;30.64
50852;BME280;43953;45.508;-122.806;2022-07-25T02:08:15;100505.25;;;32.34;30.97
50852;BME280;43953;45.508;-122.806;2022-07-25T02:08:46;100503.63;;;32.33;30.86
50852;BME280;43953;45.508;-122.806;2022-07-25T02:09:18;100501.22;;;32.31;30.61
50852;BME280;43953;45.508;-122.806;2022-07-25T02:09:50;100498.75;;;32.30;30.70
50852;BME280;43953;45.508;-122.806;2022-07-25T02:10:22;100501.22;;;32.31;30.79
50852;BME280;43953;45.508;-122.806;2022-07-25T02:10:54;100501.56;;;32.30;30.43
50852;BME280;43953;45.508;-122.806;2022-07-25T02:11:26;100501.13;;;32.28;30.84
50852;BME280;43953;45.508;-122.806;2022-07-25T02:11:57;100502.72;;;32.29;30.47
50852;BME280;43953;45.508;-122.806;2022-07-25T02:12:29;100501.13;;;32.28;30.59
50852;BME280;43953;45.508;-122.806;2022-07-25T02:13:01;100501.94;;;32.28;30.75
50852;BME280;43953;45.508;-122.806;2022-07-25T02:13:33;100495.56;;;32.28;30.80
50852;BME280;43953;45.508;-122.806;2022-07-25T02:14:05;100493.84;;;32.23;30.83
50852;BME280;43953;45.508;-122.806;2022-07-25T02:14:37;100502.28;;;32.27;30.79
50852;BME280;43953;45.508;-122.806;2022-07-25T02:15:09;100503.44;;;32.26;30.87
50852;BME280;43953;45.508;-122.806;2022-07-25T02:15:41;100503.44;;;32.26;30.53
50852;BME280;43953;45.508;-122.806;2022-07-25T02:16:12;100511.81;;;32.26;30.86
50852;BME280;43953;45.508;-122.806;2022-07-25T02:16:44;100501.84;;;32.25;30.58
50852;BME280;43953;45.508;-122.806;2022-07-25T02:17:16;100503.84;;;32.24;30.73
50852;BME280;43953;45.508;-122.806;2022-07-25T02:17:48;100507.41;;;32.25;30.68
50852;BME280;43953;45.508;-122.806;2022-07-25T02:18:20;100508.56;;;32.24;30.85
50852;BME280;43953;45.508;-122.806;2022-07-25T02:18:51;100510.56;;;32.23;31.06
50852;BME280;43953;45.508;-122.806;2022-07-25T02:19:23;100510.94;;;32.22;31.05
50852;BME280;43953;45.508;-122.806;2022-07-25T02:19:55;100499.34;;;32.20;30.93
50852;BME280;43953;45.508;-122.806;2022-07-25T02:20:26;100504.19;;;32.23;30.74
50852;BME280;43953;45.508;-122.806;2022-07-25T02:20:58;100510.09;;;32.21;30.98
50852;BME280;43953;45.508;-122.806;2022-07-25T02:21:30;100509.28;;;32.21;31.07
50852;BME280;43953;45.508;-122.806;2022-07-25T02:22:02;100507.31;;;32.21;31.02
50852;BME280;43953;45.508;-122.806;2022-07-25T02:22:34;100507.69;;;32.20;31.15
50852;BME280;43953;45.508;-122.806;2022-07-25T02:23:06;100507.22;;;32.17;30.89
50852;BME280;43953;45.508;-122.806;2022-07-25T02:23:37;100508.88;;;32.18;31.18
50852;BME280;43953;45.508;-122.806;2022-07-25T02:24:10;100508.88;;;32.18;31.07
50852;BME280;43953;45.508;-122.806;2022-07-25T02:24:42;100506.44;;;32.17;30.82
50852;BME280;43953;45.508;-122.806;2022-07-25T02:25:14;100505.63;;;32.16;30.99
50852;BME280;43953;45.508;-122.806;2022-07-25T02:25:45;100496.47;;;32.16;30.60
50852;BME280;43953;45.508;-122.806;2022-07-25T02:26:17;100504.03;;;32.15;30.97
50852;BME280;43953;45.508;-122.806;2022-07-25T02:26:49;100500.41;;;32.15;30.94
50852;BME280;43953;45.508;-122.806;2022-07-25T02:27:21;100501.22;;;32.15;31.14
50852;BME280;43953;45.508;-122.806;2022-07-25T02:27:52;100510.75;;;32.14;31.01
50852;BME280;43953;45.508;-122.806;2022-07-25T02:28:24;100503.56;;;32.13;31.10
50852;BME280;43953;45.508;-122.806;2022-07-25T02:28:56;100500.78;;;32.13;31.34
50852;BME280;43953;45.508;-122.806;2022-07-25T02:29:27;100509.13;;;32.13;31.41
50852;BME280;43953;45.508;-122.806;2022-07-25T02:29:59;100504.75;;;32.12;31.38
50852;BME280;43953;45.508;-122.806;2022-07-25T02:30:31;100501.94;;;32.12;31.44
50852;BME280;43953;45.508;-122.806;2022-07-25T02:31:03;100507.06;;;32.10;31.14
50852;BME280;43953;45.508;-122.806;2022-07-25T02:31:34;100497.91;;;32.10;31.22
50852;BME280;43953;45.508;-122.806;2022-07-25T02:32:06;100506.25;;;32.10;31.00
50852;BME280;43953;45.508;-122.806;2022-07-25T02:32:38;100509.84;;;32.10;31.17
50852;BME280;43953;45.508;-122.806;2022-07-25T02:33:10;100496.66;;;32.07;31.45
50852;BME280;43953;45.508;-122.806;2022-07-25T02:33:42;100499.88;;;32.09;31.35
50852;BME280;43953;45.508;-122.806;2022-07-25T02:34:14;100509.84;;;32.10;30.92
50852;BME280;43953;45.508;-122.806;2022-07-25T02:34:46;100504.63;;;32.09;31.12
50852;BME280;43953;45.508;-122.806;2022-07-25T02:35:18;100503.81;;;32.08;31.37
50852;BME280;43953;45.508;-122.806;2022-07-25T02:35:50;100505.44;;;32.09;31.41
50852;BME280;43953;45.508;-122.806;2022-07-25T02:36:21;100511.00;;;32.09;30.99
50852;BME280;43953;45.508;-122.806;2022-07-25T02:36:53;100509.84;;;32.10;31.31
50852;BME280;43953;45.508;-122.806;2022-07-25T02:37:25;100503.03;;;32.08;31.33
50852;BME280;43953;45.508;-122.806;2022-07-25T02:37:56;100509.13;;;32.13;31.18
50852;BME280;43953;45.508;-122.806;2022-07-25T02:38:28;100505.16;;;32.14;30.78
50852;BME280;43953;45.508;-122.806;2022-07-25T02:39:00;100505.25;;;32.18;30.86
50852;BME280;43953;45.508;-122.806;2022-07-25T02:39:32;100512.06;;;32.21;30.98
50852;BME280;43953;45.508;-122.806;2022-07-25T02:40:04;100504.97;;;32.23;30.94
50852;BME280;43953;45.508;-122.806;2022-07-25T02:40:36;100507.41;;;32.25;30.78
50852;BME280;43953;45.508;-122.806;2022-07-25T02:41:08;100498.69;;;32.26;30.87